createdAt,value
2022-10-17T00:04:35.560Z,3.8
2022-10-17T00:10:55.549Z,3.8
2022-10-17T00:17:18.616Z,2.9
2022-10-17T00:23:38.500Z,2.9
2022-10-17T00:30:01.568Z,2.4
2022-10-17T00:36:21.634Z,2.4
2022-10-17T00:42:44.536Z,2.4
2022-10-17T00:49:04.495Z,2.4
2022-10-17T00:55:27.657Z,2.4
2022-10-17T01:01:47.648Z,2.4
2022-10-17T01:08:10.491Z,3.2
2022-10-17T01:14:30.633Z,3.2
2022-10-17T01:20:53.495Z,3.6
2022-10-17T01:27:13.600Z,3.6
2022-10-17T01:33:36.514Z,3.2
2022-10-17T01:39:56.524Z,3.2
2022-10-17T01:46:19.500Z,3.6
2022-10-17T01:52:39.592Z,3.6
2022-10-17T01:59:02.530Z,1.7
2022-10-17T02:05:22.541Z,1.7
2022-10-17T02:11:45.549Z,3
2022-10-17T02:18:05.581Z,3
2022-10-17T02:24:28.602Z,4.6
2022-10-17T02:30:48.553Z,4.6
2022-10-17T02:37:11.640Z,3.1
2022-10-17T02:43:31.553Z,3.1
2022-10-17T02:49:54.523Z,2.4
2022-10-17T02:56:14.524Z,2.4
2022-10-17T03:02:37.579Z,2.7
2022-10-17T03:08:57.613Z,2.7
2022-10-17T03:15:20.520Z,3.8
2022-10-17T03:21:40.486Z,3.8
2022-10-17T03:28:03.604Z,2.3
2022-10-17T03:44:10.317Z,2.7
2022-10-17T03:50:30.513Z,2.7
2022-10-17T03:56:53.551Z,5.7
2022-10-17T04:03:16.373Z,5.7
2022-10-17T04:09:36.524Z,5.7
2022-10-17T04:15:56.634Z,5.7
2022-10-17T04:22:19.537Z,2.4
2022-10-17T04:35:02.543Z,3.9
2022-10-17T04:41:22.572Z,3.9
2022-10-17T04:47:45.521Z,3.6
2022-10-17T04:54:05.518Z,3.6
2022-10-17T05:00:28.613Z,2.5
2022-10-17T05:06:48.586Z,2.5
2022-10-17T05:13:11.524Z,1.7
2022-10-17T05:19:31.567Z,1.7
2022-10-17T05:25:54.509Z,2
2022-10-17T05:32:14.622Z,2
2022-10-17T05:38:37.575Z,3.2
2022-10-17T05:44:57.496Z,3.2
2022-10-17T05:51:20.589Z,4.5
2022-10-17T05:57:40.566Z,4.5
2022-10-17T06:04:03.502Z,3.6
2022-10-17T06:10:23.606Z,3.6
2022-10-17T06:16:46.569Z,3.8
2022-10-17T06:23:06.533Z,3.8
2022-10-17T06:29:29.616Z,3.2
2022-10-17T06:35:49.665Z,3.2
2022-10-17T06:42:12.562Z,3.5
2022-10-17T06:48:32.546Z,3.5
2022-10-17T06:54:55.612Z,2.2
2022-10-17T07:01:15.652Z,2.2
2022-10-17T07:07:40.025Z,2.9
2022-10-17T07:13:58.636Z,2.9
2022-10-17T07:20:21.598Z,6.3
2022-10-17T07:26:41.702Z,6.3
2022-10-17T07:33:04.549Z,2.5
2022-10-17T07:39:24.534Z,2.5
2022-10-17T07:45:47.546Z,2.2
2022-10-17T07:52:07.513Z,2.2
2022-10-17T07:58:30.593Z,2.6
2022-10-17T08:04:50.501Z,2.6
2022-10-17T08:11:13.651Z,3.1
2022-10-17T08:17:33.496Z,3.1
2022-10-17T08:23:56.557Z,1.5
2022-10-17T08:30:16.638Z,1.5
2022-10-17T08:36:39.554Z,0.9
2022-10-17T08:59:46.365Z,2.1
2022-10-17T09:06:06.536Z,2.1
2022-10-17T09:12:29.928Z,2.1
2022-10-17T09:18:49.576Z,2.1
2022-10-17T09:25:12.521Z,1.5
2022-10-17T09:31:32.500Z,1.5
2022-10-17T09:37:55.563Z,1.7
2022-10-17T09:44:15.507Z,1.7
2022-10-17T09:50:38.546Z,3.7
2022-10-17T09:56:58.514Z,3.7
2022-10-17T10:03:21.531Z,2.2
2022-10-17T10:09:41.502Z,2.2
2022-10-17T10:16:04.521Z,3.1
2022-10-17T10:22:24.527Z,3.1
2022-10-17T10:28:47.786Z,1.1
2022-10-17T10:35:07.581Z,1.1
2022-10-17T10:41:30.597Z,1.6
2022-10-17T10:47:50.509Z,1.6
2022-10-17T10:54:13.582Z,2.2
2022-10-17T11:00:33.646Z,2.2
2022-10-17T11:06:56.590Z,1.3
2022-10-17T11:13:16.525Z,1.3
2022-10-17T11:19:39.541Z,3.1
2022-10-17T11:25:59.507Z,3.1
2022-10-17T11:32:22.636Z,2.8
2022-10-17T11:38:42.562Z,2.8
2022-10-17T11:45:05.576Z,2.5
2022-10-17T11:57:48.499Z,2.5
2022-10-17T12:04:08.542Z,2.5
2022-10-17T12:10:31.676Z,1.8
2022-10-17T12:16:51.515Z,1.8
2022-10-17T12:23:14.555Z,0.6
2022-10-17T12:29:34.577Z,0.6
2022-10-17T12:35:57.548Z,2.4
2022-10-17T12:42:17.547Z,2.4
2022-10-17T12:48:40.541Z,3.8
2022-10-17T12:55:11.309Z,3.8
2022-10-17T13:01:24.681Z,0.9
2022-10-17T13:07:43.583Z,0.9
2022-10-17T13:14:06.518Z,1.3
2022-10-17T13:20:30.667Z,1.3
2022-10-17T13:26:52.622Z,1.6
2022-10-17T13:33:12.583Z,1.6
2022-10-17T13:39:45.577Z,1.5
2022-10-17T13:45:55.546Z,1.5
2022-10-17T13:52:18.541Z,2
2022-10-17T13:58:38.579Z,2
2022-10-17T14:05:18.509Z,1.9
2022-10-17T14:27:13.511Z,1.5
2022-10-17T14:33:34.630Z,1.5
2022-10-17T14:39:56.729Z,1.8
2022-10-17T14:46:16.751Z,1.8
2022-10-17T14:52:39.547Z,2
2022-10-17T14:58:59.708Z,2
2022-10-17T15:05:22.607Z,3
2022-10-17T15:11:42.724Z,3
2022-10-17T15:18:05.496Z,2.6
2022-10-17T15:24:25.699Z,2.6
2022-10-17T15:30:48.562Z,2.7
2022-10-17T15:37:08.466Z,2.7
2022-10-17T15:43:31.628Z,2.5
2022-10-17T15:49:51.517Z,2.5
2022-10-17T15:56:14.617Z,1.1
2022-10-17T16:02:34.619Z,1.1
2022-10-17T16:08:57.550Z,1
2022-10-17T16:15:17.827Z,1
2022-10-17T16:21:40.779Z,1.9
2022-10-17T16:28:00.499Z,1.9
2022-10-17T16:34:23.515Z,2.5
2022-10-17T16:40:43.538Z,2.5
2022-10-17T16:47:06.581Z,3.3
2022-10-17T16:53:26.509Z,3.3
2022-10-17T16:59:49.652Z,2.4
2022-10-17T17:06:09.663Z,2.4
2022-10-17T17:12:32.566Z,2.1
2022-10-17T17:18:52.568Z,2.1
2022-10-17T17:25:15.510Z,2.1
2022-10-17T17:31:35.656Z,2.1
2022-10-17T17:37:58.601Z,5.9
2022-10-17T17:44:18.546Z,5.9
2022-10-17T17:50:41.582Z,2.9
2022-10-17T17:57:01.573Z,2.9
2022-10-17T18:03:24.563Z,3.2
2022-10-17T18:09:44.574Z,3.2
2022-10-17T18:16:07.508Z,2.2
2022-10-17T18:22:27.672Z,2.2
2022-10-17T18:28:50.590Z,2.8
2022-10-17T18:35:10.534Z,2.8
2022-10-17T18:41:33.628Z,2.3
2022-10-17T18:47:53.497Z,2.3
2022-10-17T18:54:16.526Z,1.9
2022-10-17T19:00:36.556Z,1.9
2022-10-17T19:06:59.505Z,3.2
2022-10-17T19:13:20.820Z,3.2
2022-10-17T19:19:42.498Z,2.7
2022-10-17T19:44:00.411Z,2.7
2022-10-17T19:50:20.514Z,2.7
2022-10-17T19:56:43.583Z,3.5
2022-10-17T20:03:03.565Z,3.5
2022-10-17T20:09:26.499Z,2.5
2022-10-17T20:15:46.559Z,2.5
2022-10-17T20:22:09.522Z,4.4
2022-10-17T20:28:29.567Z,4.4
2022-10-17T20:34:52.504Z,3.9
2022-10-17T20:41:12.543Z,3.9
2022-10-17T20:47:45.159Z,3.7
2022-10-17T21:00:18.543Z,3.2
2022-10-17T21:06:38.529Z,3.2
2022-10-17T21:13:01.768Z,3.6
2022-10-17T21:19:21.833Z,3.6
2022-10-17T21:25:44.481Z,3.6
2022-10-17T21:32:10.524Z,3.6
2022-10-17T21:38:27.510Z,2.4
2022-10-17T21:44:47.468Z,2.4
2022-10-17T21:51:10.628Z,2.9
2022-10-17T21:57:30.519Z,2.9
2022-10-17T22:21:47.565Z,11.5
2022-10-17T22:28:07.464Z,11.5
2022-10-17T22:34:30.542Z,11.5
2022-10-17T22:40:50.544Z,11.5
2022-10-17T22:47:13.576Z,5.8
2022-10-17T22:53:33.569Z,5.8
2022-10-17T22:59:56.542Z,3.7
2022-10-17T23:06:16.554Z,3.7
2022-10-17T23:12:39.486Z,6.4
2022-10-17T23:18:59.579Z,6.4
2022-10-17T23:25:22.525Z,3.9
2022-10-17T23:31:42.606Z,3.9
2022-10-17T23:38:05.603Z,3.1
2022-10-17T23:44:25.554Z,3.1
2022-10-17T23:50:48.619Z,4.4
2022-10-17T23:57:08.501Z,4.4
